Delta Pioneer — SYIO — position and weather

sailwx.info

Track history (hours):
 
Tides and Currents Weather Stations Pressure Air Temp Water Temp Dewpoint Dewpoint Depression Visibility Wind Speed Wind Dir Waves Ship Positions

Delta Pioneer

Last reported at 2015-Mar-31 09:23 UTC. Time now 2015-Mar-31 16:58 UTC.
Position N 56°45' E 011°51'.

Length 249 m; draft 12.7 m.

Type: Tanker. MMSI: 240244000.

Date/timePositionNaut miles runAvg speedWind from/ knotsBaromVisibWave heightAir tempDewpointWater temp
2015-Mar-31 09:23N 56°45' E 011°51'910.7
2015-Mar-31 08:33N 56°53' E 011°46'1111.1
2015-Mar-31 07:33N 57°04' E 011°39'1111.3
2015-Mar-31 06:33N 57°14' E 011°33'1211.6
2015-Mar-31 05:33N 57°25' E 011°25'1211.7
2015-Mar-31 04:33N 57°34' E 011°11'1211.8
2015-Mar-31 03:33N 57°42' E 010°55'1211.5
2015-Mar-31 02:32N 57°47' E 010°35'27210.8
2015-Mar-30 01:25N 54°21' E 005°20'1011.9
2015-Mar-30 00:33N 54°14' E 005°06'1211.8
2015-Mar-29 23:32N 54°06' E 004°50'17011.3
2015-Mar-29 08:32N 51°40' E 002°27'1312.0
2015-Mar-29 07:24N 51°30' E 002°13'1012.0
2015-Mar-29 06:32N 51°22' E 002°02'1211.8
2015-Mar-29 05:33N 51°13' E 001°50'1211.6
2015-Mar-29 04:33N 51°05' E 001°38'1212.1
2015-Mar-29 03:33N 50°55' E 001°26'  
2015-Mar-25 19:18N 39°01' W 009°57'10 9.1
2015-Mar-25 18:10N 38°51' W 009°57'5 8.0
2015-Mar-25 17:33N 38°46' W 009°57'8 8.0
2015-Mar-25 16:31N 38°38' W 009°56'8 7.7
2015-Mar-25 15:29N 38°30' W 009°54'7 7.7
2015-Mar-25 14:32N 38°23' W 009°51'18 7.5
2015-Mar-25 12:11N 38°06' W 009°46'5 7.3
2015-Mar-25 11:32N 38°01' W 009°45'7 6.8
2015-Mar-25 10:33N 37°55' W 009°43'6 6.3
2015-Mar-25 09:32N 37°49' W 009°41'6 6.3
2015-Mar-25 08:33N 37°43' W 009°39'6 6.4
2015-Mar-25 07:33N 37°36' W 009°37'6 5.9
2015-Mar-25 06:32N 37°31' W 009°36'217 7.6
2015-Mar-24 02:06N 35°59' W 005°29'610.2
2015-Mar-24 01:33N 36°00' W 005°23'9 8.8
2015-Mar-24 00:33N 36°02' W 005°12'27811.4
2015-Mar-23 00:10N 36°47' E 000°29'3411.7
2015-Mar-22 21:15N 36°52' E 001°11'  
Track history (hours):
 
Tides and Currents Weather Stations Pressure Air Temp Water Temp Dewpoint Dewpoint Depression Visibility Wind Speed Wind Dir Waves Ship Positions

Delta Pioneer

Last reported at 2015-Mar-31 09:23 UTC. Time now 2015-Mar-31 16:58 UTC.
Position N 56°45' E 011°51'.

Length 249 m; draft 12.7 m.

Type: Tanker. MMSI: 240244000.

Date/timePositionNaut miles runAvg speedWind from/ knotsBaromVisibWave heightAir tempDewpointWater temp
2015-Mar-31 09:23N 56°45' E 011°51'910.7
2015-Mar-31 08:33N 56°53' E 011°46'1111.1
2015-Mar-31 07:33N 57°04' E 011°39'1111.3
2015-Mar-31 06:33N 57°14' E 011°33'1211.6
2015-Mar-31 05:33N 57°25' E 011°25'1211.7
2015-Mar-31 04:33N 57°34' E 011°11'1211.8
2015-Mar-31 03:33N 57°42' E 010°55'1211.5
2015-Mar-31 02:32N 57°47' E 010°35'27210.8
2015-Mar-30 01:25N 54°21' E 005°20'1011.9
2015-Mar-30 00:33N 54°14' E 005°06'1211.8
2015-Mar-29 23:32N 54°06' E 004°50'17011.3
2015-Mar-29 08:32N 51°40' E 002°27'1312.0
2015-Mar-29 07:24N 51°30' E 002°13'1012.0
2015-Mar-29 06:32N 51°22' E 002°02'1211.8
2015-Mar-29 05:33N 51°13' E 001°50'1211.6
2015-Mar-29 04:33N 51°05' E 001°38'1212.1
2015-Mar-29 03:33N 50°55' E 001°26'  
2015-Mar-25 19:18N 39°01' W 009°57'10 9.1
2015-Mar-25 18:10N 38°51' W 009°57'5 8.0
2015-Mar-25 17:33N 38°46' W 009°57'8 8.0
2015-Mar-25 16:31N 38°38' W 009°56'8 7.7
2015-Mar-25 15:29N 38°30' W 009°54'7 7.7
2015-Mar-25 14:32N 38°23' W 009°51'18 7.5
2015-Mar-25 12:11N 38°06' W 009°46'5 7.3
2015-Mar-25 11:32N 38°01' W 009°45'7 6.8
2015-Mar-25 10:33N 37°55' W 009°43'6 6.3
2015-Mar-25 09:32N 37°49' W 009°41'6 6.3
2015-Mar-25 08:33N 37°43' W 009°39'6 6.4
2015-Mar-25 07:33N 37°36' W 009°37'6 5.9
2015-Mar-25 06:32N 37°31' W 009°36'217 7.6
2015-Mar-24 02:06N 35°59' W 005°29'610.2
2015-Mar-24 01:33N 36°00' W 005°23'9 8.8
2015-Mar-24 00:33N 36°02' W 005°12'27811.4
2015-Mar-23 00:10N 36°47' E 000°29'3411.7
2015-Mar-22 21:15N 36°52' E 001°11'  

Dump ship's entire track history